Time;durP1;ratioP1;P1;durP2;ratioP2;P2;SDS_P1;SDS_P2;PMS_P1;PMS_P2;Temp;Humidity;BMP_temperature;BMP_pressure;BME280_temperature;BME280_humidity;BME280_pressure;Samples;Min_cycle;Max_cycle;Signal;HPM_P1;HPM_P2
2021/10/04 00:01:47;;;;;;;2.10;0.90;;;13.40;99.90;;;;;;4173458;28;20057;-75
2021/10/04 00:03:47;;;;;;;1.40;0.57;;;13.40;99.90;;;;;;4176421;28;20037;-75
2021/10/04 00:05:48;;;;;;;6.18;0.60;;;13.40;99.90;;;;;;4173357;28;20028;-76
2021/10/04 00:07:49;;;;;;;1.08;0.60;;;13.40;99.90;;;;;;4179332;28;20461;-76
2021/10/04 00:09:50;;;;;;;1.08;0.60;;;13.40;99.90;;;;;;4176823;28;20102;-76
2021/10/04 00:11:51;;;;;;;1.25;0.73;;;13.40;99.90;;;;;;4176637;28;20591;-76
2021/10/04 00:13:52;;;;;;;2.30;0.50;;;13.40;99.90;;;;;;4176739;28;20048;-76
2021/10/04 00:15:52;;;;;;;1.00;0.55;;;13.50;99.90;;;;;;4176959;28;20040;-76
2021/10/04 00:17:53;;;;;;;0.73;0.30;;;13.40;99.90;;;;;;4171371;28;20047;-76
2021/10/04 00:19:54;;;;;;;4.85;0.70;;;13.40;99.90;;;;;;4173991;28;20406;-76
2021/10/04 00:21:54;;;;;;;2.30;0.55;;;13.40;99.90;;;;;;4178199;28;20044;-76
2021/10/04 00:23:55;;;;;;;2.92;0.75;;;13.50;99.90;;;;;;4176036;28;20032;-76
2021/10/04 00:26:02;;;;;;;3.22;0.50;;;13.50;99.90;;;;;;4175235;28;20041;-76
2021/10/04 00:28:03;;;;;;;0.80;0.47;;;13.50;99.90;;;;;;4175304;28;20514;-76
2021/10/04 00:30:06;;;;;;;3.15;0.63;;;13.50;99.90;;;;;;4178289;28;20041;-76
2021/10/04 00:32:06;;;;;;;;;;;13.50;99.90;;;;;;4179760;28;20045;-76
2021/10/04 00:34:07;;;;;;;2.75;0.50;;;13.50;99.90;;;;;;4175845;28;19917;-76
2021/10/04 00:36:08;;;;;;;3.63;0.63;;;13.50;99.90;;;;;;4173176;28;20033;-76
2021/10/04 00:38:08;;;;;;;1.65;0.50;;;13.50;99.90;;;;;;4176066;28;21892;-76
2021/10/04 00:40:13;;;;;;;1.10;0.68;;;13.50;99.90;;;;;;4176057;28;20044;-76
2021/10/04 00:42:14;;;;;;;1.88;0.60;;;13.50;99.90;;;;;;4176595;28;20052;-76
2021/10/04 00:44:16;;;;;;;1.42;0.47;;;13.40;99.90;;;;;;4170776;28;20112;-76
2021/10/04 00:46:17;;;;;;;;;;;13.40;99.90;;;;;;4180403;28;20045;-76
2021/10/04 00:48:18;;;;;;;1.05;0.63;;;13.40;99.90;;;;;;4179381;28;20620;-76
2021/10/04 00:50:19;;;;;;;1.17;0.57;;;13.40;99.90;;;;;;4176051;28;20045;-76
2021/10/04 00:52:20;;;;;;;0.82;0.50;;;13.40;99.90;;;;;;4175616;28;20105;-76
2021/10/04 00:54:21;;;;;;;2.08;0.43;;;13.50;99.90;;;;;;4178158;28;20070;-76
2021/10/04 00:56:24;;;;;;;2.05;0.52;;;13.40;99.90;;;;;;4175558;28;20033;-75
2021/10/04 00:58:24;;;;;;;2.75;0.80;;;13.40;99.90;;;;;;4177719;28;20044;-76
2021/10/04 01:00:27;;;;;;;1.30;0.43;;;13.40;99.90;;;;;;4176803;28;20678;-75
2021/10/04 01:02:28;;;;;;;1.17;0.57;;;13.40;99.90;;;;;;4173958;28;20044;-76
2021/10/04 01:04:29;;;;;;;3.45;0.80;;;13.40;99.90;;;;;;4175996;28;20396;-75
2021/10/04 01:06:29;;;;;;;2.42;0.60;;;13.40;99.90;;;;;;4175325;28;20524;-75
2021/10/04 01:08:30;;;;;;;2.40;0.47;;;13.40;99.90;;;;;;4177235;28;20036;-76
2021/10/04 01:10:31;;;;;;;2.58;0.77;;;13.40;99.90;;;;;;4174205;28;20043;-76
2021/10/04 01:12:32;;;;;;;1.60;0.77;;;13.40;99.90;;;;;;4178129;28;20750;-76
2021/10/04 01:14:34;;;;;;;1.98;0.47;;;13.40;99.90;;;;;;4175947;28;20120;-76
2021/10/04 01:16:34;;;;;;;0.93;0.60;;;13.50;99.90;;;;;;4174949;28;20068;-75
2021/10/04 01:18:35;;;;;;;1.58;0.68;;;13.40;99.90;;;;;;4173429;28;20044;-75
2021/10/04 01:20:36;;;;;;;1.05;0.50;;;13.50;99.90;;;;;;4172914;28;20085;-76
2021/10/04 01:22:44;;;;;;;2.58;0.50;;;13.50;99.90;;;;;;4176010;28;20047;-75
2021/10/04 01:24:50;;;;;;;1.63;0.60;;;13.50;99.90;;;;;;4174536;28;20750;-75
2021/10/04 01:26:52;;;;;;;2.08;0.90;;;13.50;99.90;;;;;;4174221;28;20112;-75
2021/10/04 01:28:53;;;;;;;0.77;0.57;;;13.50;99.90;;;;;;4173027;28;20488;-75
2021/10/04 01:30:54;;;;;;;1.48;0.60;;;13.50;99.90;;;;;;4171215;28;20140;-75
2021/10/04 01:32:55;;;;;;;2.17;0.70;;;13.60;99.90;;;;;;4178001;28;20029;-76
2021/10/04 01:34:57;;;;;;;2.88;0.82;;;13.60;99.90;;;;;;4171887;28;20048;-76
2021/10/04 01:36:57;;;;;;;1.58;0.43;;;13.50;99.90;;;;;;4174599;28;20024;-75
2021/10/04 01:38:59;;;;;;;1.27;0.63;;;13.60;99.90;;;;;;4175709;28;20175;-75
2021/10/04 01:41:00;;;;;;;2.80;0.60;;;13.50;99.90;;;;;;4168975;28;20586;-76
2021/10/04 01:43:02;;;;;;;2.83;0.55;;;13.50;99.90;;;;;;4172715;28;20033;-75
2021/10/04 01:45:08;;;;;;;0.80;0.38;;;13.60;99.90;;;;;;4173004;28;20037;-76
2021/10/04 01:47:10;;;;;;;1.00;0.73;;;13.60;99.90;;;;;;4166828;28;20025;-76
2021/10/04 01:49:11;;;;;;;2.57;0.60;;;13.60;99.90;;;;;;4174543;28;20739;-76
2021/10/04 01:51:12;;;;;;;1.02;0.43;;;13.60;99.90;;;;;;4171968;28;20037;-75
2021/10/04 01:53:12;;;;;;;3.13;0.80;;;13.60;99.90;;;;;;4172875;28;20575;-75
2021/10/04 01:55:13;;;;;;;1.02;0.50;;;13.60;99.90;;;;;;4174554;28;20400;-76
2021/10/04 01:57:15;;;;;;;3.58;0.70;;;13.60;99.90;;;;;;4174055;28;20435;-75
2021/10/04 01:59:15;;;;;;;0.90;0.70;;;13.60;99.90;;;;;;4174297;28;20036;-76
2021/10/04 02:01:17;;;;;;;1.65;0.82;;;13.60;99.90;;;;;;4177543;28;20471;-76
2021/10/04 02:03:19;;;;;;;0.85;0.43;;;13.60;99.90;;;;;;4177805;28;20057;-75
2021/10/04 02:05:20;;;;;;;4.03;0.70;;;13.60;99.90;;;;;;4174186;28;20044;-75
2021/10/04 02:07:21;;;;;;;3.10;0.52;;;13.60;99.90;;;;;;4177385;28;20495;-75
2021/10/04 02:09:22;;;;;;;1.77;0.90;;;13.60;99.90;;;;;;4172928;28;20033;-75
2021/10/04 02:11:22;;;;;;;1.75;0.80;;;13.60;99.90;;;;;;4175368;28;20033;-76
2021/10/04 02:13:24;;;;;;;3.03;0.75;;;13.60;99.90;;;;;;4175959;28;20048;-76
2021/10/04 02:15:25;;;;;;;0.73;0.40;;;13.60;99.90;;;;;;4177316;28;20083;-75
2021/10/04 02:17:26;;;;;;;2.97;0.82;;;13.70;99.90;;;;;;4173775;28;20037;-75
2021/10/04 02:19:26;;;;;;;1.13;0.50;;;13.70;99.90;;;;;;4179371;28;20186;-75
2021/10/04 02:21:27;;;;;;;3.15;0.70;;;13.70;99.90;;;;;;4173512;28;20040;-75
2021/10/04 02:23:28;;;;;;;2.47;0.90;;;13.70;99.90;;;;;;4177557;28;20041;-75
2021/10/04 02:25:28;;;;;;;4.47;0.80;;;13.70;99.90;;;;;;4172930;28;20040;-75
2021/10/04 02:27:29;;;;;;;3.58;0.60;;;13.70;99.90;;;;;;4173188;28;20033;-76
2021/10/04 02:29:35;;;;;;;0.90;0.60;;;13.70;99.90;;;;;;4174553;28;20064;-75
2021/10/04 02:31:36;;;;;;;0.60;0.50;;;13.70;99.90;;;;;;4173182;28;20056;-76
2021/10/04 02:33:37;;;;;;;1.73;0.80;;;13.70;99.90;;;;;;4171544;28;20095;-75
2021/10/04 02:35:39;;;;;;;1.33;0.50;;;13.70;99.90;;;;;;4177089;28;20623;-76
2021/10/04 02:37:41;;;;;;;2.70;0.38;;;13.70;99.90;;;;;;4177010;28;20037;-75
2021/10/04 02:39:42;;;;;;;3.50;0.60;;;13.80;99.90;;;;;;4172521;28;20037;-76
2021/10/04 02:41:42;;;;;;;1.67;0.45;;;13.80;99.90;;;;;;4173035;28;20041;-75
2021/10/04 02:43:43;;;;;;;1.42;0.52;;;13.80;99.90;;;;;;4169888;28;20045;-76
2021/10/04 02:45:46;;;;;;;2.38;0.88;;;13.80;99.90;;;;;;4172913;28;20161;-76
2021/10/04 02:47:48;;;;;;;;;;;13.70;99.90;;;;;;4171930;28;20045;-75
2021/10/04 02:49:49;;;;;;;2.05;0.80;;;13.70;99.90;;;;;;4171657;28;20372;-75
2021/10/04 02:51:50;;;;;;;1.42;0.60;;;13.60;99.90;;;;;;4174870;28;20102;-76
2021/10/04 02:53:50;;;;;;;1.15;0.70;;;13.60;99.90;;;;;;4176765;28;20484;-76
2021/10/04 02:55:51;;;;;;;1.05;0.65;;;13.60;99.90;;;;;;4172051;28;20087;-75
2021/10/04 02:57:51;;;;;;;1.95;0.68;;;13.60;99.90;;;;;;4178870;28;20036;-76
2021/10/04 02:59:52;;;;;;;0.95;0.55;;;13.60;99.90;;;;;;4171595;28;20033;-75
2021/10/04 03:01:54;;;;;;;1.35;0.60;;;13.60;99.90;;;;;;4177254;28;20052;-75
2021/10/04 03:03:55;;;;;;;4.88;0.80;;;13.60;99.90;;;;;;4169985;28;20144;-76
2021/10/04 03:05:56;;;;;;;1.30;0.70;;;13.60;99.90;;;;;;4173479;28;20060;-75
2021/10/04 03:07:57;;;;;;;1.17;0.60;;;13.60;99.90;;;;;;4177850;28;20081;-75
2021/10/04 03:09:58;;;;;;;1.77;0.80;;;13.50;99.90;;;;;;4173756;28;20036;-76
2021/10/04 03:11:58;;;;;;;2.15;0.65;;;13.50;99.90;;;;;;4172732;28;20041;-76
2021/10/04 03:13:59;;;;;;;3.75;0.70;;;13.50;99.90;;;;;;4172920;28;20041;-76
2021/10/04 03:16:00;;;;;;;2.38;0.85;;;13.50;99.90;;;;;;4172990;28;20045;-75
2021/10/04 03:18:01;;;;;;;0.90;0.50;;;13.40;99.90;;;;;;4173618;28;20045;-76
2021/10/04 03:20:02;;;;;;;1.52;0.55;;;13.40;99.90;;;;;;4173568;28;20108;-76
2021/10/04 03:22:04;;;;;;;2.78;1.13;;;13.30;99.90;;;;;;4175487;28;20900;-76
2021/10/04 03:24:04;;;;;;;2.65;0.95;;;13.30;99.90;;;;;;4175287;28;20045;-75
2021/10/04 03:26:05;;;;;;;1.48;0.70;;;13.30;99.90;;;;;;4174101;28;20040;-76
2021/10/04 03:28:06;;;;;;;2.58;0.90;;;13.30;99.90;;;;;;4172784;28;20041;-76
2021/10/04 03:30:08;;;;;;;2.73;1.03;;;13.30;99.90;;;;;;4168511;28;20056;-76
2021/10/04 03:32:08;;;;;;;3.15;0.80;;;13.20;99.90;;;;;;4175671;28;20036;-76
2021/10/04 03:34:10;;;;;;;0.82;0.57;;;13.20;99.90;;;;;;4173893;28;20041;-76
2021/10/04 03:36:10;;;;;;;3.70;0.82;;;13.20;99.90;;;;;;4177449;28;20029;-76
2021/10/04 03:38:11;;;;;;;0.57;0.57;;;13.20;99.90;;;;;;4178589;28;20025;-76
2021/10/04 03:40:13;;;;;;;2.08;0.90;;;13.20;99.90;;;;;;4181482;28;20501;-76
2021/10/04 03:42:14;;;;;;;3.10;1.00;;;13.20;99.90;;;;;;4180159;28;20040;-76
2021/10/04 03:44:14;;;;;;;1.67;1.00;;;13.20;99.90;;;;;;4178793;28;20793;-76
2021/10/04 03:46:15;;;;;;;3.95;0.73;;;13.10;99.90;;;;;;4178129;28;20029;-76
2021/10/04 03:48:15;;;;;;;2.15;1.10;;;13.10;99.90;;;;;;4178466;28;20047;-76
2021/10/04 03:50:17;;;;;;;2.75;1.05;;;13.10;99.90;;;;;;4176031;28;20355;-76
2021/10/04 03:52:18;;;;;;;3.55;1.10;;;13.00;99.90;;;;;;4178638;28;20095;-76
2021/10/04 03:54:19;;;;;;;2.05;1.15;;;13.00;99.90;;;;;;4179851;28;20052;-75
2021/10/04 03:56:23;;;;;;;3.20;0.80;;;12.90;99.90;;;;;;4183545;28;20047;-76
2021/10/04 03:58:25;;;;;;;1.95;0.98;;;12.90;99.90;;;;;;4173987;28;20033;-76
2021/10/04 04:00:27;;;;;;;2.65;0.75;;;13.00;99.90;;;;;;4177432;28;20048;-76
2021/10/04 04:02:27;;;;;;;1.57;0.80;;;12.90;99.90;;;;;;4172748;28;20057;-76
2021/10/04 04:04:30;;;;;;;3.75;1.27;;;13.00;99.90;;;;;;4174919;28;20047;-76
2021/10/04 04:06:30;;;;;;;;;;;12.90;99.90;;;;;;4177582;28;20036;-76
2021/10/04 04:08:33;;;;;;;1.08;0.70;;;12.90;99.90;;;;;;4178301;28;19912;-76
2021/10/04 04:10:34;;;;;;;3.75;1.10;;;12.90;99.90;;;;;;4176277;28;20531;-76
2021/10/04 04:12:36;;;;;;;2.60;0.93;;;12.90;99.90;;;;;;4176392;28;20451;-76
2021/10/04 04:14:38;;;;;;;1.95;0.80;;;12.90;99.90;;;;;;4168408;28;20052;-76
2021/10/04 04:16:39;;;;;;;;;;;12.90;99.90;;;;;;4176243;28;20479;-76
2021/10/04 04:18:40;;;;;;;2.30;0.90;;;12.90;99.90;;;;;;4176280;28;19913;-77
2021/10/04 04:20:40;;;;;;;1.60;0.70;;;12.90;99.90;;;;;;4175673;28;20560;-76
2021/10/04 04:22:46;;;;;;;1.02;0.80;;;12.90;99.90;;;;;;4178705;28;20035;-76
2021/10/04 04:24:48;;;;;;;2.80;0.90;;;12.90;99.90;;;;;;4171779;28;20045;-76
2021/10/04 04:26:51;;;;;;;2.25;0.95;;;12.90;99.90;;;;;;4173803;28;20124;-76
2021/10/04 04:28:52;;;;;;;2.17;0.90;;;12.90;99.90;;;;;;4170801;28;20064;-76
2021/10/04 04:30:53;;;;;;;2.05;0.88;;;12.90;99.90;;;;;;4173097;28;20519;-76
2021/10/04 04:32:54;;;;;;;1.20;0.90;;;12.90;99.90;;;;;;4157898;28;20042;-79
2021/10/04 04:35:05;;;;;;;1.50;0.80;;;13.00;99.90;;;;;;4143806;28;20917;-79
2021/10/04 04:37:06;;;;;;;1.63;0.75;;;12.90;99.90;;;;;;4153035;28;20127;-76
2021/10/04 04:39:07;;;;;;;1.33;0.80;;;12.90;99.90;;;;;;4172516;28;20769;-76
2021/10/04 04:41:07;;;;;;;4.15;1.20;;;13.00;99.90;;;;;;4173933;28;20049;-76
2021/10/04 04:43:08;;;;;;;2.97;1.10;;;13.00;99.90;;;;;;4172255;28;20068;-75
2021/10/04 04:45:16;;;;;;;2.08;0.98;;;13.00;99.90;;;;;;4172767;28;20040;-75
2021/10/04 04:47:17;;;;;;;2.42;1.10;;;13.00;99.90;;;;;;4155467;28;20227;-75
2021/10/04 04:49:19;;;;;;;1.75;1.00;;;13.00;99.90;;;;;;4170785;28;20051;-76
2021/10/04 04:51:19;;;;;;;11.63;1.47;;;13.00;99.90;;;;;;4170687;28;20520;-76
2021/10/04 04:53:20;;;;;;;1.23;0.70;;;13.00;99.90;;;;;;4153311;28;20091;-76
2021/10/04 04:55:21;;;;;;;2.58;1.17;;;13.00;99.90;;;;;;4171070;28;20437;-76
2021/10/04 04:57:22;;;;;;;2.60;1.10;;;13.00;99.90;;;;;;4167491;28;25201;-76
2021/10/04 04:59:22;;;;;;;6.53;1.48;;;13.00;99.90;;;;;;4168803;28;20563;-76
2021/10/04 05:01:23;;;;;;;4.38;0.82;;;12.90;99.90;;;;;;4172856;28;20029;-76
2021/10/04 05:03:23;;;;;;;4.20;1.10;;;12.90;99.90;;;;;;4172867;28;20029;-76
2021/10/04 05:05:24;;;;;;;2.88;0.90;;;12.90;99.90;;;;;;4168810;28;20033;-76
2021/10/04 05:07:25;;;;;;;2.35;0.93;;;13.00;99.90;;;;;;4170301;28;21501;-76
2021/10/04 05:09:25;;;;;;;1.80;0.98;;;12.90;99.90;;;;;;4168689;28;20087;-76
2021/10/04 05:11:26;;;;;;;1.80;1.10;;;13.00;99.90;;;;;;4167384;28;20060;-76
2021/10/04 05:13:40;;;;;;;2.58;0.80;;;13.00;99.90;;;;;;4169905;28;20131;-76
2021/10/04 05:15:41;;;;;;;6.68;1.15;;;12.90;99.90;;;;;;4151941;28;20037;-76
2021/10/04 05:17:42;;;;;;;2.25;1.25;;;12.90;99.90;;;;;;4146284;28;20044;-76
2021/10/04 05:19:42;;;;;;;9.32;1.27;;;12.90;99.90;;;;;;4134307;28;20046;-76
2021/10/04 05:21:43;;;;;;;2.75;1.20;;;12.90;99.90;;;;;;4150356;28;20131;-76
2021/10/04 05:23:44;;;;;;;3.13;1.10;;;12.90;99.90;;;;;;4143986;28;20071;-76
2021/10/04 05:25:44;;;;;;;1.80;0.85;;;12.90;99.90;;;;;;4154253;28;20041;-76
2021/10/04 05:27:45;;;;;;;1.55;1.08;;;12.90;99.90;;;;;;4147442;28;20049;-76
2021/10/04 05:29:45;;;;;;;2.20;0.98;;;13.00;99.90;;;;;;4147252;28;20076;-76
2021/10/04 05:31:46;;;;;;;2.47;0.73;;;12.90;99.90;;;;;;4148968;28;20041;-76
2021/10/04 05:33:47;;;;;;;2.33;0.90;;;12.90;99.90;;;;;;4150269;28;20025;-76
2021/10/04 05:35:48;;;;;;;2.00;1.00;;;12.90;99.90;;;;;;4144894;28;20273;-76
2021/10/04 05:37:49;;;;;;;2.90;0.95;;;12.90;99.90;;;;;;4133487;28;20089;-76
2021/10/04 05:39:51;;;;;;;2.25;1.20;;;12.90;99.90;;;;;;4147239;28;20116;-76
2021/10/04 05:41:51;;;;;;;6.10;1.25;;;12.90;99.90;;;;;;4151114;28;20045;-76
2021/10/04 05:43:52;;;;;;;3.45;1.30;;;12.90;99.90;;;;;;4149111;28;20075;-76
2021/10/04 05:45:53;;;;;;;2.30;0.95;;;12.90;99.90;;;;;;4151055;28;20537;-76
2021/10/04 05:47:53;;;;;;;1.73;1.00;;;12.90;99.90;;;;;;4150580;28;20717;-76
2021/10/04 05:49:54;;;;;;;1.73;1.08;;;12.90;99.90;;;;;;4148676;28;20037;-76
2021/10/04 05:51:54;;;;;;;3.00;1.15;;;12.90;99.90;;;;;;4148596;28;20034;-76
2021/10/04 05:53:55;;;;;;;3.00;1.02;;;12.90;99.90;;;;;;4150035;28;20049;-76
2021/10/04 05:55:55;;;;;;;2.75;1.15;;;12.90;99.90;;;;;;4148336;28;20028;-76
2021/10/04 05:57:56;;;;;;;2.08;1.02;;;12.90;99.90;;;;;;4148857;28;20034;-76
2021/10/04 05:59:57;;;;;;;1.73;1.10;;;12.90;99.90;;;;;;4147939;28;20071;-76
2021/10/04 06:01:57;;;;;;;4.78;1.50;;;12.90;99.90;;;;;;4148848;28;20041;-76
2021/10/04 06:03:58;;;;;;;2.65;1.27;;;12.90;99.90;;;;;;4147997;28;20184;-77
2021/10/04 06:05:58;;;;;;;3.17;1.50;;;12.90;99.90;;;;;;4150567;28;20033;-77
2021/10/04 06:07:59;;;;;;;2.20;1.48;;;12.90;99.90;;;;;;4147640;28;20017;-77
2021/10/04 06:10:00;;;;;;;2.63;1.75;;;12.90;99.90;;;;;;4146569;28;20460;-76
2021/10/04 06:12:00;;;;;;;3.63;1.45;;;12.90;99.90;;;;;;4148664;28;20037;-77
2021/10/04 06:14:01;;;;;;;2.90;1.23;;;12.90;99.90;;;;;;4148307;28;20032;-76
2021/10/04 06:16:02;;;;;;;3.03;1.50;;;12.90;99.90;;;;;;4144908;28;20075;-76
2021/10/04 06:18:02;;;;;;;2.10;1.20;;;12.90;99.90;;;;;;4148359;28;20084;-76
2021/10/04 06:20:04;;;;;;;4.78;1.27;;;13.00;99.90;;;;;;4148446;28;20309;-77
2021/10/04 06:22:04;;;;;;;2.63;1.50;;;13.00;99.90;;;;;;4148641;28;20075;-76
2021/10/04 06:24:05;;;;;;;3.00;1.15;;;13.00;99.90;;;;;;4145516;28;20025;-77
2021/10/04 06:26:06;;;;;;;2.13;1.10;;;13.00;99.90;;;;;;4148953;28;20037;-77
2021/10/04 06:28:06;;;;;;;3.53;0.82;;;13.00;99.90;;;;;;4145448;28;20509;-76
2021/10/04 06:30:08;;;;;;;1.65;1.00;;;13.00;99.90;;;;;;4148013;28;20438;-76
2021/10/04 06:32:09;;;;;;;2.92;1.02;;;13.00;99.90;;;;;;4149427;28;20041;-77
2021/10/04 06:34:09;;;;;;;2.13;0.80;;;13.00;99.90;;;;;;4147618;28;20030;-76
2021/10/04 06:36:10;;;;;;;4.15;1.40;;;13.00;99.90;;;;;;4147308;28;20036;-77
2021/10/04 06:38:11;;;;;;;4.43;1.15;;;13.00;99.90;;;;;;4164017;28;20400;-76
2021/10/04 06:40:13;;;;;;;3.95;1.10;;;13.00;99.90;;;;;;4177577;28;20028;-77
2021/10/04 06:42:14;;;;;;;3.38;1.20;;;13.00;99.90;;;;;;4179077;28;20803;-76
2021/10/04 06:44:14;;;;;;;1.88;1.05;;;13.00;99.90;;;;;;4165140;28;20455;-76
2021/10/04 06:46:15;;;;;;;3.08;0.90;;;13.10;99.90;;;;;;4163818;28;20037;-77
2021/10/04 06:48:15;;;;;;;2.22;1.15;;;13.00;99.90;;;;;;4163849;28;20045;-77
2021/10/04 06:50:16;;;;;;;6.57;1.30;;;13.00;99.90;;;;;;4165773;28;20044;-77
2021/10/04 06:52:17;;;;;;;2.47;1.40;;;13.00;99.90;;;;;;4165745;28;20072;-76
2021/10/04 06:54:18;;;;;;;1.55;1.08;;;13.10;99.90;;;;;;4163719;28;20098;-76
2021/10/04 06:56:18;;;;;;;3.90;1.30;;;13.10;99.90;;;;;;4164590;28;20048;-76
2021/10/04 06:58:19;;;;;;;1.77;0.98;;;13.10;99.90;;;;;;4165531;28;20053;-77
2021/10/04 07:00:22;;;;;;;3.33;1.20;;;13.10;99.90;;;;;;4163124;28;20068;-77
2021/10/04 07:02:23;;;;;;;2.90;0.93;;;13.10;99.90;;;;;;4163681;28;20037;-76
2021/10/04 07:04:24;;;;;;;1.92;1.17;;;13.10;99.90;;;;;;4164587;28;20047;-76
2021/10/04 07:06:25;;;;;;;1.67;0.85;;;13.20;99.90;;;;;;4161334;28;21866;-76
2021/10/04 07:08:26;;;;;;;1.95;1.13;;;13.10;99.90;;;;;;4163044;28;20029;-77
2021/10/04 07:10:27;;;;;;;3.47;1.02;;;13.20;99.90;;;;;;4161818;28;20409;-76
2021/10/04 07:12:27;;;;;;;4.38;1.90;;;13.20;99.90;;;;;;4163418;28;20047;-76
2021/10/04 07:14:28;;;;;;;2.42;1.00;;;13.20;99.90;;;;;;4162527;28;20600;-76
2021/10/04 07:16:28;;;;;;;2.85;0.93;;;13.20;99.90;;;;;;4164604;28;20040;-76
2021/10/04 07:18:29;;;;;;;5.18;1.45;;;13.20;99.90;;;;;;4164919;28;20485;-76
2021/10/04 07:20:30;;;;;;;3.25;1.25;;;13.30;99.90;;;;;;4162969;28;20059;-76
2021/10/04 07:22:30;;;;;;;3.75;1.20;;;13.30;99.90;;;;;;4163712;28;20037;-76
2021/10/04 07:24:31;;;;;;;2.10;1.10;;;13.30;99.90;;;;;;4161706;28;20037;-76
2021/10/04 07:26:31;;;;;;;1.25;0.90;;;13.30;99.90;;;;;;4163078;28;20075;-76
2021/10/04 07:28:33;;;;;;;1.65;1.00;;;13.30;99.90;;;;;;4164611;28;20029;-76
2021/10/04 07:30:34;;;;;;;3.45;1.10;;;13.40;99.90;;;;;;4164022;28;20082;-76
2021/10/04 07:32:35;;;;;;;3.30;1.05;;;13.30;99.90;;;;;;4164551;28;20268;-76
2021/10/04 07:34:36;;;;;;;4.63;1.30;;;13.40;99.90;;;;;;4144440;28;20034;-76
2021/10/04 07:36:37;;;;;;;3.80;1.55;;;13.40;99.90;;;;;;4163260;28;20115;-76
2021/10/04 07:38:38;;;;;;;4.10;1.27;;;13.40;99.90;;;;;;4166558;28;20029;-76
2021/10/04 07:40:39;;;;;;;5.35;1.35;;;13.40;99.90;;;;;;4164242;28;20122;-76
2021/10/04 07:42:41;;;;;;;2.03;1.30;;;13.30;99.90;;;;;;4164432;28;20037;-76
2021/10/04 07:44:42;;;;;;;2.05;1.00;;;13.30;99.90;;;;;;4162378;28;20033;-76
2021/10/04 07:46:43;;;;;;;1.10;0.93;;;13.40;99.90;;;;;;4164683;28;20504;-76
2021/10/04 07:48:43;;;;;;;1.23;0.85;;;13.40;99.90;;;;;;4166166;28;20037;-76
2021/10/04 07:50:44;;;;;;;2.10;1.08;;;13.50;99.90;;;;;;4164254;28;20029;-76
2021/10/04 07:52:46;;;;;;;2.92;0.90;;;13.40;99.90;;;;;;4165284;28;20028;-76
2021/10/04 07:54:46;;;;;;;2.20;0.98;;;13.50;99.90;;;;;;4163753;28;20139;-76
2021/10/04 07:56:47;;;;;;;4.15;1.00;;;13.50;99.90;;;;;;4164494;28;20045;-76
2021/10/04 07:58:47;;;;;;;5.55;1.05;;;13.50;99.90;;;;;;4163259;28;20029;-76
2021/10/04 08:00:48;;;;;;;4.28;1.13;;;13.50;99.90;;;;;;4167644;28;20927;-76
2021/10/04 08:02:49;;;;;;;3.83;1.17;;;13.60;99.90;;;;;;4166249;28;20194;-76
2021/10/04 08:04:49;;;;;;;1.70;0.90;;;13.60;99.90;;;;;;4167569;28;20041;-76
2021/10/04 08:06:50;;;;;;;1.98;1.10;;;13.60;99.90;;;;;;4164259;28;20041;-76
2021/10/04 08:08:50;;;;;;;4.05;1.20;;;13.60;99.90;;;;;;4167107;28;20029;-76
2021/10/04 08:10:51;;;;;;;2.60;0.85;;;13.60;99.90;;;;;;4165083;28;20097;-76
2021/10/04 08:12:52;;;;;;;6.93;1.52;;;13.60;99.90;;;;;;4165766;28;20045;-76
2021/10/04 08:14:54;;;;;;;2.22;1.20;;;13.60;99.90;;;;;;4164443;28;20046;-76
2021/10/04 08:16:54;;;;;;;4.97;1.67;;;13.60;99.90;;;;;;4166157;28;20060;-76
2021/10/04 08:18:55;;;;;;;5.85;1.48;;;13.60;99.90;;;;;;4164850;28;20267;-76
2021/10/04 08:20:56;;;;;;;1.58;0.93;;;13.60;99.90;;;;;;4168589;28;20029;-76
2021/10/04 08:22:56;;;;;;;2.20;1.27;;;13.60;99.90;;;;;;4171620;28;20452;-76
2021/10/04 08:24:57;;;;;;;2.40;1.13;;;13.60;99.90;;;;;;4169195;28;20721;-76
2021/10/04 08:26:57;;;;;;;2.70;1.38;;;13.60;99.90;;;;;;4168565;28;20028;-76
2021/10/04 08:28:58;;;;;;;4.97;1.23;;;13.70;99.90;;;;;;4169923;28;20412;-75
2021/10/04 08:30:59;;;;;;;3.22;0.85;;;13.70;99.90;;;;;;4169344;28;20330;-76
2021/10/04 08:32:59;;;;;;;2.78;1.20;;;13.70;99.90;;;;;;4170993;28;20032;-76
2021/10/04 08:35:02;;;;;;;3.33;1.20;;;13.80;99.90;;;;;;4168433;28;20543;-76
2021/10/04 08:37:03;;;;;;;3.55;1.05;;;13.80;99.90;;;;;;4167620;28;20063;-76
2021/10/04 08:39:05;;;;;;;1.88;1.00;;;13.90;99.90;;;;;;4170300;28;20029;-76
2021/10/04 08:41:06;;;;;;;4.38;1.25;;;13.90;99.90;;;;;;4168788;28;20098;-76
2021/10/04 08:43:07;;;;;;;4.82;1.23;;;13.90;99.90;;;;;;4166247;28;20040;-76
2021/10/04 08:45:08;;;;;;;4.25;1.35;;;14.00;99.90;;;;;;4168906;28;20556;-76
2021/10/04 08:47:09;;;;;;;2.75;1.25;;;14.00;99.90;;;;;;4169826;28;20044;-76
2021/10/04 08:49:09;;;;;;;4.63;1.35;;;14.00;99.90;;;;;;4165140;28;20026;-76
2021/10/04 08:51:10;;;;;;;6.53;1.75;;;14.10;99.90;;;;;;4165698;28;20143;-76
2021/10/04 08:53:12;;;;;;;4.20;1.55;;;14.10;99.90;;;;;;4167544;28;20037;-76
2021/10/04 08:55:13;;;;;;;6.63;1.45;;;14.10;99.90;;;;;;4170270;28;20432;-75
2021/10/04 08:57:13;;;;;;;3.28;1.10;;;14.10;99.90;;;;;;4167215;28;20102;-76
2021/10/04 08:59:15;;;;;;;4.30;1.20;;;14.20;99.90;;;;;;4163072;28;20028;-76
2021/10/04 09:01:22;;;;;;;4.93;1.88;;;14.20;99.90;;;;;;4169395;28;20773;-76
2021/10/04 09:03:23;;;;;;;5.53;1.90;;;14.20;99.90;;;;;;4168245;28;20041;-76
2021/10/04 09:05:25;;;;;;;5.15;1.80;;;14.30;99.90;;;;;;4166691;28;20185;-76
2021/10/04 09:07:40;;;;;;;4.10;1.58;;;14.30;99.90;;;;;;4168986;28;20610;-76
2021/10/04 09:09:53;;;;;;;5.20;1.65;;;14.30;99.90;;;;;;4167311;28;20503;-76
2021/10/04 09:11:53;;;;;;;4.07;1.33;;;14.30;99.90;;;;;;4165349;28;20456;-76
2021/10/04 09:13:54;;;;;;;1.98;1.10;;;14.40;99.90;;;;;;4172114;28;20098;-75
2021/10/04 09:15:55;;;;;;;5.10;1.45;;;14.40;99.90;;;;;;4169720;28;20033;-76
2021/10/04 09:18:17;;;;;;;2.25;1.00;;;14.50;99.90;;;;;;4120112;28;20171;-75
2021/10/04 09:20:19;;;;;;;3.47;1.23;;;14.50;99.90;;;;;;4158393;28;20790;-76
2021/10/04 09:22:21;;;;;;;6.60;1.33;;;14.50;99.90;;;;;;4149432;28;20048;-75
2021/10/04 09:24:22;;;;;;;4.60;1.23;;;14.50;99.90;;;;;;4152909;28;20099;-75
2021/10/04 09:26:26;;;;;;;7.78;1.90;;;14.60;99.90;;;;;;4151826;28;20723;-75
2021/10/04 09:28:41;;;;;;;6.95;1.55;;;14.60;99.90;;;;;;4151998;28;20116;-75
2021/10/04 09:30:42;;;;;;;3.00;1.08;;;14.70;99.90;;;;;;4149280;28;20636;-76
2021/10/04 09:32:48;;;;;;;5.32;1.38;;;14.80;99.90;;;;;;4152250;28;20132;-76
2021/10/04 09:34:48;;;;;;;5.10;1.33;;;14.80;99.90;;;;;;4150169;28;20570;-75
2021/10/04 09:36:58;;;;;;;2.00;1.10;;;14.90;99.90;;;;;;4148748;28;20034;-75
2021/10/04 09:39:18;;;;;;;2.92;0.93;;;15.00;99.90;;;;;;4151657;28;20034;-76
2021/10/04 09:41:19;;;;;;;2.78;0.98;;;15.10;99.90;;;;;;4166644;28;20053;-75
2021/10/04 09:43:26;;;;;;;5.05;1.45;;;15.20;99.90;;;;;;4169531;28;20029;-76
2021/10/04 09:45:27;;;;;;;1.65;0.73;;;15.30;99.90;;;;;;4170064;28;20041;-76
2021/10/04 09:47:34;;;;;;;2.05;1.02;;;15.30;99.90;;;;;;4166814;28;20048;-75
2021/10/04 09:49:56;;;;;;;3.63;1.15;;;15.40;99.90;;;;;;4169642;28;20035;-76
2021/10/04 09:51:56;;;;;;;4.40;1.20;;;15.50;99.90;;;;;;4169348;28;20114;-75
2021/10/04 09:54:10;;;;;;;4.10;0.95;;;15.50;99.90;;;;;;4167926;28;20725;-75
2021/10/04 09:56:24;;;;;;;4.00;1.10;;;15.60;99.90;;;;;;4168887;28;20765;-75
2021/10/04 09:58:33;;;;;;;5.22;1.42;;;15.70;99.90;;;;;;4168711;28;23840;-75
2021/10/04 10:00:37;;;;;;;5.15;1.35;;;15.80;99.90;;;;;;4169807;28;20052;-75
2021/10/04 10:02:38;;;;;;;3.22;1.00;;;15.90;99.90;;;;;;4167840;28;20110;-75
2021/10/04 10:04:46;;;;;;;7.00;1.25;;;16.00;99.90;;;;;;4169701;28;20048;-75
2021/10/04 10:06:47;;;;;;;3.00;1.10;;;16.10;99.90;;;;;;4164595;28;20067;-76
2021/10/04 10:08:48;;;;;;;4.57;1.25;;;16.20;99.90;;;;;;4168007;28;20037;-75
2021/10/04 10:11:02;;;;;;;7.05;1.08;;;16.30;99.90;;;;;;4168777;28;20801;-75
2021/10/04 10:13:15;;;;;;;5.00;1.13;;;16.40;99.90;;;;;;4145112;28;20103;-75
2021/10/04 10:15:22;;;;;;;8.27;1.52;;;16.50;99.90;;;;;;4168312;28;20036;-76
2021/10/04 10:17:29;;;;;;;3.25;1.20;;;16.60;99.90;;;;;;4168192;28;20067;-76
2021/10/04 10:19:31;;;;;;;3.58;0.93;;;16.70;99.90;;;;;;4170146;28;20577;-75
2021/10/04 10:21:33;;;;;;;3.20;1.02;;;16.70;99.90;;;;;;4168189;28;20136;-75
2021/10/04 10:23:56;;;;;;;6.38;1.52;;;16.70;99.90;;;;;;4165679;28;20037;-76
2021/10/04 10:25:57;;;;;;;3.38;1.10;;;16.70;99.90;;;;;;4164911;28;20036;-75
2021/10/04 10:28:00;;;;;;;12.18;1.20;;;16.70;99.90;;;;;;4158657;28;20026;-75
2021/10/04 10:30:16;;;;;;;3.85;1.08;;;16.60;99.90;;;;;;4149527;28;20091;-75
2021/10/04 10:32:19;;;;;;;4.07;1.02;;;16.70;99.90;;;;;;4168334;28;20029;-76
2021/10/04 10:34:29;;;;;;;4.78;0.82;;;16.60;99.90;;;;;;4163381;28;20567;-75
2021/10/04 10:37:07;;;;;;;4.47;1.33;;;16.60;99.90;;;;;;4168132;28;20059;-74